Time;durP1;ratioP1;P1;durP2;ratioP2;P2;SDS_P1;SDS_P2;PMS_P1;PMS_P2;Temp;Humidity;BMP_temperature;BMP_pressure;BME280_temperature;BME280_humidity;BME280_pressure;Samples;Min_cycle;Max_cycle;Signal;HPM_P1;HPM_P2
2022/12/02 00:02:21;;;;;;;33.75;17.35;;;;;;;3.52;78.72;98103.25;1705184;82;21012;-77
2022/12/02 00:04:56;;;;;;;34.73;17.00;;;;;;;3.49;78.81;98103.27;1705984;83;20953;-80
2022/12/02 00:07:24;;;;;;;30.23;17.57;;;;;;;3.49;78.95;98111.13;1709610;83;21115;-78
2022/12/02 00:09:52;;;;;;;32.75;17.30;;;;;;;3.44;78.92;98104.56;1695718;83;20973;-79
2022/12/02 00:12:24;;;;;;;33.95;17.32;;;;;;;3.43;78.82;98103.70;1695353;83;21387;-78
2022/12/02 00:15:00;;;;;;;32.53;17.98;;;;;;;3.41;78.88;98104.58;1697928;83;21081;-78
2022/12/02 00:17:27;;;;;;;30.57;17.65;;;;;;;3.37;78.98;98098.89;1638465;83;21035;-78
2022/12/02 00:19:54;;;;;;;32.33;16.97;;;;;;;3.39;78.84;98104.99;1693554;83;21450;-78
2022/12/02 00:22:20;;;;;;;34.43;17.70;;;;;;;3.37;78.93;98106.30;1696613;83;21040;-78
2022/12/02 00:24:47;;;;;;;34.48;18.70;;;;;;;3.36;78.86;98111.11;1668168;84;21080;-78
2022/12/02 00:27:14;;;;;;;35.48;17.50;;;;;;;3.33;78.81;98111.55;1697264;83;21032;-78
2022/12/02 00:29:41;;;;;;;38.85;18.98;;;;;;;3.25;78.78;98115.04;1696781;83;21008;-77
2022/12/02 00:32:08;;;;;;;32.65;17.73;;;;;;;3.22;78.81;98123.30;1710281;83;21110;-78
2022/12/02 00:34:35;;;;;;;35.25;18.77;;;;;;;3.19;78.87;98115.00;1699474;83;21063;-78
2022/12/02 00:37:01;;;;;;;35.33;18.92;;;;;;;3.15;79.03;98119.37;1722833;83;20968;-79
2022/12/02 00:39:28;;;;;;;36.65;19.37;;;;;;;3.11;79.07;98120.23;1734864;83;20979;-79
2022/12/02 00:41:54;;;;;;;33.42;19.48;;;;;;;3.12;79.15;98118.50;1735363;83;21046;-79
2022/12/02 00:47:05;;;;;;;;;;;;;;;3.08;79.35;98119.36;1736195;83;20990;-80
2022/12/02 00:49:33;;;;;;;36.73;19.85;;;;;;;3.07;79.56;98118.92;1733413;83;20276;-79
2022/12/02 00:52:01;;;;;;;37.55;20.55;;;;;;;3.06;79.57;98111.95;1730253;83;20988;-80
2022/12/02 00:54:28;;;;;;;34.88;19.55;;;;;;;3.01;79.75;98111.91;1735568;83;21078;-80
2022/12/02 00:56:54;;;;;;;35.58;20.80;;;;;;;2.99;79.72;98121.06;1722170;83;21417;-80
2022/12/02 00:59:21;;;;;;;35.08;20.95;;;;;;;2.99;80.20;98121.06;1686382;83;20999;-79
2022/12/02 01:01:48;;;;;;;37.17;20.97;;;;;;;3.01;80.32;98123.27;1716819;82;21006;-79
2022/12/02 01:04:14;;;;;;;33.30;20.10;;;;;;;3.03;80.44;98112.78;1698686;83;21046;-79
2022/12/02 01:06:43;;;;;;;35.48;19.90;;;;;;;3.07;80.50;98114.54;1701493;82;21493;-79
2022/12/02 01:09:10;;;;;;;36.68;19.82;;;;;;;3.09;80.32;98119.37;1713559;83;21032;-79
2022/12/02 01:11:36;;;;;;;37.67;19.50;;;;;;;3.08;80.19;98116.73;1706267;82;21068;-79
2022/12/02 01:14:03;;;;;;;36.08;19.07;;;;;;;3.05;80.32;98113.67;1708222;82;21045;-79
2022/12/02 01:16:29;;;;;;;35.65;19.05;;;;;;;3.06;80.66;98110.18;1718444;82;20996;-79
2022/12/02 01:18:57;;;;;;;33.70;17.87;;;;;;;3.07;80.47;98110.61;1708745;82;20966;-79
2022/12/02 01:21:27;;;;;;;34.00;16.80;;;;;;;3.08;80.44;98108.88;1706440;82;20978;-78
2022/12/02 01:23:54;;;;;;;31.50;19.02;;;;;;;3.06;80.34;98110.18;1706142;82;21549;-80
2022/12/02 01:26:22;;;;;;;30.25;18.98;;;;;;;3.06;80.48;98105.40;1706130;82;21072;-79
2022/12/02 01:28:48;;;;;;;34.75;19.05;;;;;;;3.06;80.48;98108.88;1707456;82;21423;-80
2022/12/02 01:31:15;;;;;;;34.83;18.42;;;;;;;3.07;80.88;98110.61;1730520;82;21103;-80
2022/12/02 01:33:42;;;;;;;31.48;18.35;;;;;;;3.08;80.82;98109.77;1729048;82;20983;-76
2022/12/02 01:36:10;;;;;;;35.05;19.42;;;;;;;3.07;80.71;98114.54;1736998;82;20980;-77
2022/12/02 01:38:36;;;;;;;34.30;18.23;;;;;;;3.03;80.59;98108.85;1736246;82;21023;-77
2022/12/02 01:41:04;;;;;;;36.13;18.05;;;;;;;2.98;80.85;98112.78;1727993;82;21027;-77
2022/12/02 01:43:31;;;;;;;39.48;18.32;;;;;;;2.94;80.92;98107.09;1734344;82;20976;-77
2022/12/02 01:45:59;;;;;;;40.03;19.25;;;;;;;2.95;81.20;98108.83;1728132;82;21295;-77
2022/12/02 01:48:28;;;;;;;35.40;19.27;;;;;;;2.98;81.37;98104.04;1721896;82;20996;-76
2022/12/02 01:50:54;;;;;;;32.83;18.82;;;;;;;3.01;81.52;98109.30;1728739;82;21027;-77
2022/12/02 01:53:21;;;;;;;34.48;19.42;;;;;;;2.99;81.18;98105.36;1727510;82;21069;-76
2022/12/02 01:55:48;;;;;;;38.65;21.02;;;;;;;2.99;81.34;98101.89;1706793;82;21080;-77
2022/12/02 01:58:17;;;;;;;35.95;19.57;;;;;;;2.99;81.42;98108.44;1706894;82;21673;-77
2022/12/02 02:00:44;;;;;;;38.58;20.08;;;;;;;2.96;81.54;98105.38;1675756;84;21047;-76
2022/12/02 02:03:10;;;;;;;37.80;19.98;;;;;;;2.99;81.61;98111.05;1706038;82;21047;-76
2022/12/02 02:05:38;;;;;;;47.25;20.90;;;;;;;3.00;81.43;98111.48;1706098;83;21431;-77
2022/12/02 02:08:09;;;;;;;39.03;21.00;;;;;;;3.04;81.55;98112.79;1711576;83;21448;-77
2022/12/02 02:10:38;;;;;;;34.20;21.17;;;;;;;3.08;81.68;98113.70;1677176;84;20999;-77
2022/12/02 02:13:08;;;;;;;39.63;20.40;;;;;;;3.14;82.04;98112.39;1677548;83;21361;-77
2022/12/02 02:15:38;;;;;;;33.90;18.57;;;;;;;3.22;81.92;98105.86;1684160;83;21538;-78
2022/12/02 02:18:06;;;;;;;30.65;18.70;;;;;;;3.30;82.61;98111.11;1680775;84;21000;-77
2022/12/02 02:20:37;;;;;;;34.95;18.90;;;;;;;3.36;82.32;98116.34;1677743;84;21031;-77
2022/12/02 02:23:10;;;;;;;35.30;19.37;;;;;;;3.40;82.25;98117.22;1677648;83;21019;-77
2022/12/02 02:25:45;;;;;;;32.55;18.87;;;;;;;3.48;82.53;98119.42;1677411;83;21047;-77
2022/12/02 02:28:13;;;;;;;42.25;19.85;;;;;;;3.53;82.88;98113.74;1677396;83;21056;-77
2022/12/02 02:30:40;;;;;;;32.25;17.95;;;;;;;3.57;82.54;98114.61;1677660;84;22202;-77
2022/12/02 02:33:12;;;;;;;40.15;18.60;;;;;;;3.59;82.45;98114.62;1677410;84;20992;-77
2022/12/02 02:35:41;;;;;;;34.38;19.07;;;;;;;3.59;82.37;98106.75;1661385;84;20982;-78
2022/12/02 02:38:12;;;;;;;34.20;18.98;;;;;;;3.63;82.84;98108.51;1684644;83;20998;-78
2022/12/02 02:40:39;;;;;;;31.77;18.87;;;;;;;3.68;82.91;98110.27;1679846;83;20992;-77
2022/12/02 02:43:06;;;;;;;37.80;18.82;;;;;;;3.72;82.80;98114.18;1710263;83;21025;-78
2022/12/02 02:45:36;;;;;;;36.17;19.77;;;;;;;3.68;82.31;98112.89;1678306;83;21008;-78
2022/12/02 02:48:07;;;;;;;40.43;19.23;;;;;;;3.62;82.31;98111.59;1646669;85;21070;-78
2022/12/02 02:50:38;;;;;;;39.30;19.50;;;;;;;3.58;82.08;98118.12;1676037;84;21008;-78
2022/12/02 02:53:06;;;;;;;39.55;19.37;;;;;;;3.53;82.10;98120.30;1677007;83;21058;-77
2022/12/02 02:55:35;;;;;;;40.25;20.05;;;;;;;3.51;82.36;98125.98;1676322;83;21015;-77
2022/12/02 02:58:16;;;;;;;45.52;19.50;;;;;;;3.47;82.66;98120.30;1677587;84;20980;-76
2022/12/02 03:00:52;;;;;;;48.08;21.37;;;;;;;3.46;82.72;98123.80;1677662;83;21052;-76
2022/12/02 03:03:22;;;;;;;44.03;20.60;;;;;;;3.39;82.26;98121.60;1677332;83;21023;-76
2022/12/02 03:05:51;;;;;;;40.43;19.32;;;;;;;3.33;82.09;98117.67;1676908;83;21405;-76
2022/12/02 03:08:22;;;;;;;39.30;19.60;;;;;;;3.26;82.06;98118.09;1709217;82;21039;-76
2022/12/02 03:10:51;;;;;;;43.13;20.30;;;;;;;3.22;82.09;98112.83;1710246;82;21009;-76
2022/12/02 03:13:18;;;;;;;36.38;19.02;;;;;;;3.19;82.84;98115.46;1706348;82;21021;-76
2022/12/02 03:15:46;;;;;;;39.23;21.02;;;;;;;3.15;82.51;98110.63;1706217;82;21546;-76
2022/12/02 03:18:13;;;;;;;38.50;20.12;;;;;;;3.14;82.74;98105.84;1706164;82;20942;-76
2022/12/02 03:20:39;;;;;;;37.93;18.35;;;;;;;3.15;82.85;98104.97;1709409;82;21029;-75
2022/12/02 03:23:06;;;;;;;33.35;17.95;;;;;;;3.15;83.26;98111.52;1706242;82;21013;-76
2022/12/02 03:25:32;;;;;;;34.15;17.77;;;;;;;3.14;83.02;98106.27;1706137;82;21001;-77
2022/12/02 03:28:00;;;;;;;32.55;16.75;;;;;;;3.14;83.08;98104.53;1707139;82;20982;-78
2022/12/02 03:30:29;;;;;;;29.95;16.40;;;;;;;3.14;83.14;98102.34;1706218;82;20993;-78
2022/12/02 03:32:55;;;;;;;30.35;16.57;;;;;;;3.12;83.11;98101.02;1710500;82;21138;-77
2022/12/02 03:35:22;;;;;;;29.30;15.93;;;;;;;3.06;83.12;98102.33;1725793;82;21025;-77
2022/12/02 03:37:50;;;;;;;29.15;16.73;;;;;;;3.02;83.36;98099.25;1709556;82;21007;-77
2022/12/02 03:40:17;;;;;;;31.75;17.35;;;;;;;3.00;83.15;98101.01;1706537;82;21005;-77
2022/12/02 03:42:43;;;;;;;34.15;17.48;;;;;;;2.99;83.37;98104.05;1706226;82;21020;-77
2022/12/02 03:45:11;;;;;;;29.65;15.40;;;;;;;3.00;83.59;98106.24;1706178;82;21021;-77
2022/12/02 03:47:39;;;;;;;31.68;16.85;;;;;;;2.96;83.49;98107.10;1715303;82;20975;-77
2022/12/02 03:50:07;;;;;;;30.48;17.20;;;;;;;2.97;83.57;98102.30;1709380;82;21020;-77
2022/12/02 03:52:35;;;;;;;36.25;16.60;;;;;;;2.99;83.41;98100.12;1706095;82;21084;-77
2022/12/02 03:55:02;;;;;;;32.30;16.75;;;;;;;3.00;83.37;98108.41;1706407;82;21387;-77
2022/12/02 03:57:33;;;;;;;31.27;16.50;;;;;;;3.00;83.20;98112.34;1706406;82;20981;-77
2022/12/02 04:00:01;;;;;;;29.95;16.37;;;;;;;2.98;83.58;98114.09;1706303;82;20993;-77
2022/12/02 04:02:27;;;;;;;29.52;16.97;;;;;;;3.00;83.54;98120.19;1708770;82;20991;-77
2022/12/02 04:04:54;;;;;;;28.25;16.40;;;;;;;2.99;83.82;98117.14;1714191;82;21048;-76
2022/12/02 04:07:20;;;;;;;28.02;17.00;;;;;;;3.00;83.83;98114.95;1734185;82;21450;-79
2022/12/02 04:09:47;;;;;;;30.77;17.10;;;;;;;3.00;83.65;98119.34;1718964;83;21047;-79
2022/12/02 04:12:13;;;;;;;32.38;16.85;;;;;;;3.00;83.78;98117.58;1722694;83;20948;-79
2022/12/02 04:14:40;;;;;;;29.98;16.85;;;;;;;3.01;84.06;98115.42;1722449;83;20984;-79
2022/12/02 04:17:07;;;;;;;28.35;16.62;;;;;;;3.03;83.89;98120.22;1721817;83;20925;-76
2022/12/02 04:19:33;;;;;;;30.72;17.95;;;;;;;3.04;83.58;98114.09;1702158;83;20984;-78
2022/12/02 04:22:01;;;;;;;29.15;16.77;;;;;;;2.99;83.40;98117.59;1722553;83;21019;-76
2022/12/02 04:24:27;;;;;;;31.27;17.15;;;;;;;2.96;83.55;98122.39;1722697;83;21024;-76
2022/12/02 04:26:55;;;;;;;29.02;17.50;;;;;;;2.95;83.77;98119.30;1722632;83;21013;-75
2022/12/02 04:29:22;;;;;;;33.45;17.35;;;;;;;2.95;83.92;98119.30;1721870;83;21000;-75
2022/12/02 04:31:49;;;;;;;30.95;17.07;;;;;;;2.96;83.82;98118.46;1722586;83;20957;-76
2022/12/02 04:34:17;;;;;;;30.30;18.32;;;;;;;2.96;83.90;98127.63;1722635;83;21040;-76
2022/12/02 04:36:44;;;;;;;39.65;18.82;;;;;;;3.00;84.25;98120.19;1722581;83;21012;-77
2022/12/02 04:39:11;;;;;;;30.10;17.55;;;;;;;3.05;84.14;98130.70;1718862;83;21058;-77
2022/12/02 04:41:38;;;;;;;33.70;17.37;;;;;;;3.06;84.15;98119.34;1722294;83;21059;-77
2022/12/02 04:44:05;;;;;;;29.27;16.37;;;;;;;3.11;84.30;98120.23;1721895;83;21060;-77
2022/12/02 04:46:31;;;;;;;36.25;17.77;;;;;;;3.17;84.59;98117.62;1722748;83;20925;-77
2022/12/02 04:48:58;;;;;;;30.12;17.07;;;;;;;3.23;84.52;98123.31;1722521;83;21138;-77
2022/12/02 04:51:25;;;;;;;33.20;16.95;;;;;;;3.30;85.16;98121.58;1722454;83;20964;-77
2022/12/02 04:53:51;;;;;;;29.45;16.30;;;;;;;3.37;85.17;98125.95;1722541;83;21024;-77
2022/12/02 04:56:19;;;;;;;33.35;17.98;;;;;;;3.43;84.95;98129.91;1721595;83;21037;-77
2022/12/02 04:58:46;;;;;;;38.00;18.32;;;;;;;3.53;85.14;98128.61;1716230;83;21426;-78
2022/12/02 05:01:12;;;;;;;38.05;17.52;;;;;;;3.58;84.82;98128.60;1689831;83;21001;-78
2022/12/02 05:03:39;;;;;;;37.30;17.77;;;;;;;3.54;84.67;98130.35;1689289;83;20973;-79
2022/12/02 05:06:06;;;;;;;39.20;18.20;;;;;;;3.52;85.01;98129.03;1683183;83;21035;-78
2022/12/02 05:08:32;;;;;;;47.23;19.50;;;;;;;3.50;85.28;98136.45;1717026;82;20988;-77
2022/12/02 05:10:59;;;;;;;39.33;18.25;;;;;;;3.50;85.27;98129.48;1714363;83;21410;-78
2022/12/02 05:13:25;;;;;;;34.73;18.15;;;;;;;3.52;85.30;98126.41;1719460;83;20987;-78
2022/12/02 05:15:53;;;;;;;42.15;20.35;;;;;;;3.54;85.06;98128.59;1709416;83;21390;-79
2022/12/02 05:18:19;;;;;;;36.65;20.10;;;;;;;3.53;85.23;98128.61;1713720;83;20988;-80
2022/12/02 05:20:50;;;;;;;35.00;19.30;;;;;;;3.52;85.40;98123.80;1728317;83;21023;-80
2022/12/02 05:23:16;;;;;;;33.63;18.65;;;;;;;3.50;85.12;98125.98;1704951;83;20988;-70
2022/12/02 05:25:43;;;;;;;39.00;20.32;;;;;;;3.42;85.08;98121.62;1708075;83;21487;-69
2022/12/02 05:28:09;;;;;;;34.83;19.02;;;;;;;3.33;85.11;98125.95;1703273;83;21000;-72
2022/12/02 05:30:36;;;;;;;33.63;20.08;;;;;;;3.26;85.06;98124.64;1704358;83;21011;-71
2022/12/02 05:33:02;;;;;;;34.83;19.23;;;;;;;3.21;85.22;98125.06;1707307;83;21098;-71
2022/12/02 05:35:29;;;;;;;29.75;18.32;;;;;;;3.17;85.40;98122.86;1690284;84;20957;-71
2022/12/02 05:37:55;;;;;;;31.90;18.57;;;;;;;3.16;85.48;98132.05;1710943;83;21449;-71
2022/12/02 05:40:22;;;;;;;30.85;17.73;;;;;;;3.11;85.17;98137.70;1702599;83;20973;-71
2022/12/02 05:42:49;;;;;;;31.48;17.37;;;;;;;3.07;85.27;98138.56;1709392;83;21003;-72
2022/12/02 05:45:22;;;;;;;34.00;18.77;;;;;;;3.04;85.33;98142.05;1702258;83;21020;-72
2022/12/02 05:47:54;;;;;;;29.30;17.15;;;;;;;2.99;85.24;98135.47;1707806;83;21009;-71
2022/12/02 05:50:22;;;;;;;32.25;17.00;;;;;;;2.97;85.45;98137.22;1689039;83;21020;-71
2022/12/02 05:52:50;;;;;;;29.10;17.35;;;;;;;2.99;85.33;98136.78;1714650;83;21470;-72
2022/12/02 05:55:19;;;;;;;32.67;17.92;;;;;;;2.99;85.72;98135.47;1706560;83;20965;-72
2022/12/02 05:57:48;;;;;;;33.02;18.37;;;;;;;2.99;85.54;98139.85;1687430;84;21032;-71
2022/12/02 06:00:19;;;;;;;32.73;18.50;;;;;;;2.99;85.60;98140.70;1702187;83;21052;-71
2022/12/02 06:02:59;;;;;;;34.13;16.87;;;;;;;3.00;85.61;98144.21;1703594;83;21054;-72
2022/12/02 06:05:29;;;;;;;32.73;18.00;;;;;;;2.96;85.81;98144.64;1667457;84;21547;-71
2022/12/02 06:08:00;;;;;;;33.80;18.15;;;;;;;2.97;85.81;98145.08;1708085;83;21082;-71
2022/12/02 06:10:31;;;;;;;32.28;17.85;;;;;;;2.97;85.82;98146.80;1709552;83;21395;-72
2022/12/02 06:13:03;;;;;;;33.95;19.50;;;;;;;2.96;86.02;98148.99;1708473;83;21369;-71
2022/12/02 06:15:35;;;;;;;35.98;20.20;;;;;;;2.97;85.85;98154.23;1698717;83;21001;-71
2022/12/02 06:18:12;;;;;;;34.85;19.90;;;;;;;2.97;85.98;98154.66;1701955;83;20970;-71
2022/12/02 06:20:39;;;;;;;34.23;19.40;;;;;;;2.96;86.86;98159.47;1701319;83;20948;-71
2022/12/02 06:23:15;;;;;;;33.90;19.52;;;;;;;2.96;86.31;98158.16;1699026;82;21025;-72
2022/12/02 06:25:44;;;;;;;33.85;19.73;;;;;;;2.96;86.61;98168.62;1698757;83;21001;-72
2022/12/02 06:28:35;;;;;;;34.43;19.95;;;;;;;2.96;86.88;98163.39;1698578;83;21060;-71
2022/12/02 06:31:18;;;;;;;34.10;19.57;;;;;;;2.96;86.51;98166.89;1698841;83;21424;-71
2022/12/02 06:33:49;;;;;;;33.65;19.40;;;;;;;2.97;86.69;98162.09;1691552;83;21451;-71
2022/12/02 06:36:23;;;;;;;37.03;20.52;;;;;;;2.96;86.80;98165.59;1713644;83;21047;-70
2022/12/02 06:39:03;;;;;;;34.92;21.23;;;;;;;2.97;86.52;98162.09;1712970;83;21009;-71
2022/12/02 06:41:35;;;;;;;31.65;19.95;;;;;;;2.97;86.57;98167.33;1714745;83;21023;-70
2022/12/02 06:47:35;;;;;;;35.43;18.50;;;;;;;2.93;87.39;98174.73;1698929;83;20994;-70
2022/12/02 06:50:13;;;;;;;33.08;18.17;;;;;;;2.94;86.74;98168.62;1698618;83;21061;-70
2022/12/02 06:52:44;;;;;;;32.28;18.00;;;;;;;3.00;86.80;98179.10;1683227;83;21041;-71
2022/12/02 06:55:32;;;;;;;30.75;18.85;;;;;;;3.04;86.64;98181.33;1697839;83;20970;-71
2022/12/02 06:58:27;;;;;;;36.13;20.43;;;;;;;3.10;86.66;98173.91;1698748;83;21045;-71
2022/12/02 07:01:02;;;;;;;31.05;17.42;;;;;;;3.18;86.52;98183.98;1698934;83;21010;-71
2022/12/02 07:03:33;;;;;;;28.02;17.10;;;;;;;3.30;86.92;98184.03;1697897;83;20977;-70
2022/12/02 07:06:24;;;;;;;32.20;18.02;;;;;;;3.39;87.03;98182.28;1698637;83;21045;-70
2022/12/02 07:08:59;;;;;;;29.63;17.10;;;;;;;3.50;86.95;98179.70;1690829;83;21692;-70
2022/12/02 07:11:49;;;;;;;30.88;17.70;;;;;;;3.61;86.80;98190.20;1694835;83;21097;-70
2022/12/02 07:14:47;;;;;;;28.45;17.23;;;;;;;3.63;86.40;98187.14;1691826;83;20993;-71
2022/12/02 07:17:28;;;;;;;29.52;17.52;;;;;;;3.67;86.43;98191.09;1695998;82;21061;-70
2022/12/02 07:20:10;;;;;;;33.90;18.62;;;;;;;3.72;86.39;98191.09;1691813;83;21065;-71
2022/12/02 07:22:42;;;;;;;32.15;19.02;;;;;;;3.74;86.21;98186.70;1691647;83;20994;-70
2022/12/02 07:25:14;;;;;;;35.48;19.92;;;;;;;3.77;86.49;98180.59;1691721;83;21038;-70
2022/12/02 07:27:48;;;;;;;34.67;20.02;;;;;;;3.80;86.40;98184.11;1689480;83;21081;-71
2022/12/02 07:30:41;;;;;;;41.08;23.60;;;;;;;3.80;86.00;98188.47;1691506;83;21017;-71
2022/12/02 07:33:08;;;;;;;43.52;25.55;;;;;;;3.77;85.77;98189.34;1691680;83;21002;-71
2022/12/02 07:35:35;;;;;;;40.80;23.12;;;;;;;3.79;86.02;98190.66;1691783;83;20998;-71
2022/12/02 07:38:01;;;;;;;42.25;24.80;;;;;;;3.73;85.54;98189.35;1693279;83;20975;-70
2022/12/02 07:40:28;;;;;;;39.58;22.67;;;;;;;3.71;85.58;98191.97;1691731;83;21400;-70
2022/12/02 07:42:54;;;;;;;39.05;22.87;;;;;;;3.73;85.93;98190.20;1705607;83;21020;-70
2022/12/02 07:45:21;;;;;;;41.73;21.87;;;;;;;3.74;85.69;98197.64;1691697;83;21023;-71
2022/12/02 07:47:48;;;;;;;36.70;21.97;;;;;;;3.72;85.57;98200.27;1691681;83;21408;-71
2022/12/02 07:50:16;;;;;;;37.03;22.52;;;;;;;3.71;85.71;98198.52;1693600;83;21002;-70
2022/12/02 07:52:43;;;;;;;38.65;22.07;;;;;;;3.68;86.03;98196.77;1704806;83;21030;-72
2022/12/02 07:55:10;;;;;;;37.73;21.85;;;;;;;3.67;85.87;98201.58;1691662;83;21045;-71
2022/12/02 07:57:38;;;;;;;38.90;21.55;;;;;;;3.67;85.67;98197.65;1691508;83;21002;-71
2022/12/02 08:00:07;;;;;;;38.30;21.05;;;;;;;3.67;85.86;98204.63;1664555;83;21419;-71
2022/12/02 08:02:40;;;;;;;37.53;22.25;;;;;;;3.67;85.70;98187.59;1692316;83;21036;-71
2022/12/02 08:05:07;;;;;;;34.38;19.40;;;;;;;3.68;85.68;98186.28;1692268;83;21038;-72
2022/12/02 08:07:34;;;;;;;33.13;20.60;;;;;;;3.72;85.82;98191.09;1691700;83;21407;-72
2022/12/02 08:10:00;;;;;;;35.60;19.67;;;;;;;3.75;86.00;98183.23;1701653;83;21059;-71
2022/12/02 08:12:27;;;;;;;31.17;18.12;;;;;;;3.82;86.00;98190.67;1698546;83;20974;-71
2022/12/02 08:14:53;;;;;;;28.77;17.05;;;;;;;3.82;85.71;98186.28;1699934;83;21465;-72
2022/12/02 08:17:19;;;;;;;33.63;20.10;;;;;;;3.84;85.66;98186.30;1700358;83;20997;-71
2022/12/02 08:19:46;;;;;;;33.95;20.92;;;;;;;3.82;85.77;98187.59;1698569;83;21013;-71
2022/12/02 08:22:13;;;;;;;33.80;19.65;;;;;;;3.85;85.81;98188.48;1703154;83;21015;-72
2022/12/02 08:24:39;;;;;;;34.40;20.05;;;;;;;3.93;85.81;98194.16;1699099;83;20998;-71
2022/12/02 08:27:05;;;;;;;36.15;19.57;;;;;;;3.99;85.82;98185.44;1702055;83;21004;-71
2022/12/02 08:29:33;;;;;;;31.20;19.92;;;;;;;4.06;85.99;98183.23;1700865;83;21061;-71
2022/12/02 08:32:00;;;;;;;35.28;20.05;;;;;;;4.13;85.70;98180.59;1702181;83;20997;-71
2022/12/02 08:34:26;;;;;;;31.77;19.37;;;;;;;4.21;85.60;98184.10;1714263;83;21437;-71
2022/12/02 08:36:53;;;;;;;32.30;19.32;;;;;;;4.30;85.65;98180.59;1703107;83;21114;-71
2022/12/02 08:39:19;;;;;;;32.93;18.90;;;;;;;4.35;85.39;98178.83;1710000;83;20989;-71
2022/12/02 08:41:46;;;;;;;31.93;19.00;;;;;;;4.43;85.28;98177.50;1698624;83;21419;-71
2022/12/02 08:44:12;;;;;;;32.63;19.98;;;;;;;4.49;85.10;98179.67;1723857;83;20999;-72
2022/12/02 08:46:39;;;;;;;31.40;19.52;;;;;;;4.56;85.06;98175.30;1701440;83;21005;-71
2022/12/02 08:49:06;;;;;;;30.02;19.42;;;;;;;4.64;84.92;98179.20;1698713;83;21053;-71
2022/12/02 08:51:34;;;;;;;35.28;19.02;;;;;;;4.67;84.55;98183.58;1699026;83;21053;-71
2022/12/02 08:54:01;;;;;;;32.15;19.12;;;;;;;4.69;84.59;98174.81;1698936;83;21153;-71
2022/12/02 08:56:27;;;;;;;33.20;17.70;;;;;;;4.75;84.75;98180.50;1720227;83;21044;-71
2022/12/02 08:58:54;;;;;;;30.25;18.60;;;;;;;4.80;84.30;98180.05;1696755;83;20974;-71
2022/12/02 09:01:20;;;;;;;32.60;17.50;;;;;;;4.74;83.99;98175.67;1698733;83;21036;-70
2022/12/02 09:03:47;;;;;;;33.50;18.00;;;;;;;4.75;84.03;98179.19;1698928;83;20964;-72
2022/12/02 09:06:14;;;;;;;28.87;17.67;;;;;;;4.74;84.04;98178.76;1698856;83;21001;-70
2022/12/02 09:08:40;;;;;;;29.32;17.75;;;;;;;4.79;84.24;98175.67;1712558;83;21076;-70
2022/12/02 09:11:07;;;;;;;29.55;18.10;;;;;;;4.80;83.78;98178.73;1673076;84;21000;-70
2022/12/02 09:13:33;;;;;;;33.80;18.95;;;;;;;4.77;83.58;98179.19;1687056;84;21062;-70
2022/12/02 09:16:00;;;;;;;33.00;18.80;;;;;;;4.75;83.77;98166.95;1671003;84;20978;-72
2022/12/02 09:18:26;;;;;;;32.93;18.98;;;;;;;4.84;84.03;98178.27;1687128;84;21017;-71
2022/12/02 09:20:53;;;;;;;32.33;18.45;;;;;;;4.84;83.67;98178.27;1687013;84;20938;-70
2022/12/02 09:23:19;;;;;;;33.40;19.10;;;;;;;4.87;83.75;98173.88;1686956;84;21471;-71
2022/12/02 09:25:46;;;;;;;34.25;18.70;;;;;;;4.94;83.84;98172.56;1691700;85;21055;-70
2022/12/02 09:28:12;;;;;;;32.40;19.37;;;;;;;5.06;83.96;98176.89;1706447;82;21008;-70
2022/12/02 09:30:39;;;;;;;30.95;18.10;;;;;;;5.14;83.53;98177.70;1708556;82;20969;-71
2022/12/02 09:33:05;;;;;;;29.25;18.35;;;;;;;5.20;83.46;98168.94;1709277;82;21028;-71
2022/12/02 09:35:33;;;;;;;33.50;18.50;;;;;;;5.26;83.16;98172.83;1722051;82;20973;-71
2022/12/02 09:38:00;;;;;;;38.98;22.95;;;;;;;5.33;82.27;98169.31;1719760;82;21007;-71
2022/12/02 09:40:31;;;;;;;52.27;29.85;;;;;;;5.39;82.62;98171.89;1716474;82;21027;-71
2022/12/02 09:42:58;;;;;;;37.15;18.07;;;;;;;5.43;82.37;98171.42;1708972;82;21458;-70
2022/12/02 09:45:25;;;;;;;28.80;17.42;;;;;;;5.48;82.18;98168.79;1711992;82;22162;-69
2022/12/02 09:47:53;;;;;;;29.50;18.10;;;;;;;5.54;81.94;98174.89;1721575;82;20996;-70
2022/12/02 09:50:21;;;;;;;32.90;18.45;;;;;;;5.64;82.20;98169.53;1713633;82;21062;-70
2022/12/02 09:52:48;;;;;;;27.30;17.25;;;;;;;5.79;82.32;98169.88;1724185;82;21087;-70
2022/12/02 09:55:19;;;;;;;30.20;16.90;;;;;;;5.95;81.89;98163.61;1730407;82;21061;-70
2022/12/02 09:57:46;;;;;;;29.25;16.57;;;;;;;6.08;81.47;98159.60;1719030;82;21029;-71
2022/12/02 10:00:20;;;;;;;27.90;16.52;;;;;;;6.19;80.37;98163.47;1715995;82;21041;-70
2022/12/02 10:02:53;;;;;;;30.12;17.20;;;;;;;6.29;80.29;98164.23;1709066;82;21019;-70
2022/12/02 10:05:28;;;;;;;28.80;18.75;;;;;;;6.37;79.93;98168.99;1720076;82;20992;-70
2022/12/02 10:07:57;;;;;;;27.15;16.62;;;;;;;6.46;79.76;98161.00;1705719;82;20993;-71
2022/12/02 10:10:41;;;;;;;26.55;15.28;;;;;;;6.55;79.88;98163.09;1704310;83;20984;-70
2022/12/02 10:13:18;;;;;;;24.10;14.05;;;;;;;6.62;79.76;98165.22;1721440;83;20965;-71
2022/12/02 10:15:46;;;;;;;29.87;17.20;;;;;;;6.60;79.17;98170.06;1698921;83;21422;-70
2022/12/02 10:18:18;;;;;;;26.70;16.02;;;;;;;6.59;78.98;98173.59;1707734;83;21008;-70
2022/12/02 10:20:45;;;;;;;27.80;16.37;;;;;;;6.68;79.22;98169.98;1697000;83;20974;-70
2022/12/02 10:23:21;;;;;;;29.07;16.97;;;;;;;6.79;78.92;98165.03;1698776;83;21014;-70
2022/12/02 10:25:57;;;;;;;33.98;17.65;;;;;;;6.81;77.84;98164.13;1698581;83;21041;-71
2022/12/02 10:28:34;;;;;;;29.60;17.73;;;;;;;6.82;77.97;98166.33;1698812;83;21004;-71
2022/12/02 10:31:21;;;;;;;30.85;16.75;;;;;;;6.89;77.59;98169.30;1711323;83;21438;-71
2022/12/02 10:33:56;;;;;;;28.12;17.42;;;;;;;6.90;77.48;98164.48;1698612;83;21033;-70
2022/12/02 10:36:38;;;;;;;27.37;17.48;;;;;;;6.92;77.58;98157.84;1668035;84;21094;-71
2022/12/02 10:39:22;;;;;;;30.17;17.05;;;;;;;6.85;77.56;98156.61;1675757;84;20995;-71
2022/12/02 10:42:09;;;;;;;29.80;17.32;;;;;;;6.93;77.97;98162.25;1674685;84;21012;-71
2022/12/02 10:44:43;;;;;;;26.77;15.80;;;;;;;6.95;77.39;98165.30;1675091;84;21450;-70
2022/12/02 10:47:23;;;;;;;31.37;17.45;;;;;;;6.87;77.15;98167.14;1674719;84;21030;-71
2022/12/02 10:49:58;;;;;;;26.27;15.50;;;;;;;6.85;77.16;98160.56;1673586;84;21476;-72
2022/12/02 10:52:36;;;;;;;32.30;19.57;;;;;;;6.84;76.77;98162.78;1674628;84;21003;-72
2022/12/02 10:55:05;;;;;;;27.67;16.82;;;;;;;6.87;77.01;98167.14;1676608;84;21059;-72
2022/12/02 10:57:34;;;;;;;27.75;16.37;;;;;;;6.82;76.50;98167.17;1686669;84;20972;-72
2022/12/02 11:00:05;;;;;;;26.95;15.70;;;;;;;6.79;76.33;98165.91;1675713;84;21194;-72
2022/12/02 11:02:42;;;;;;;26.40;16.05;;;;;;;6.74;75.87;98165.95;1672533;84;21067;-72
2022/12/02 11:05:26;;;;;;;25.72;15.30;;;;;;;6.72;76.24;98169.49;1677536;84;21016;-71
2022/12/02 11:08:06;;;;;;;27.87;15.60;;;;;;;6.69;76.34;98165.13;1672370;84;21434;-71
2022/12/02 11:10:41;;;;;;;28.60;16.93;;;;;;;6.69;76.69;98171.72;1668860;85;21008;-71
2022/12/02 11:13:32;;;;;;;28.57;15.70;;;;;;;6.73;76.62;98164.67;1667304;85;21004;-71
2022/12/02 11:16:27;;;;;;;32.00;18.15;;;;;;;6.71;76.40;98161.17;1666246;85;20988;-71
2022/12/02 11:19:36;;;;;;;32.67;19.17;;;;;;;6.67;76.20;98159.45;1681368;85;21505;-71
2022/12/02 11:22:04;;;;;;;28.95;16.87;;;;;;;6.63;76.34;98155.98;1590019;88;21013;-72
2022/12/02 11:24:34;;;;;;;32.88;17.92;;;;;;;6.63;76.73;98152.47;1655633;85;21007;-72
2022/12/02 11:27:05;;;;;;;30.32;16.67;;;;;;;6.65;76.98;98150.71;1667309;85;21064;-72
2022/12/02 11:29:42;;;;;;;31.82;17.48;;;;;;;6.65;76.47;98146.77;1667178;85;21075;-73
2022/12/02 11:32:30;;;;;;;28.77;16.60;;;;;;;6.63;76.55;98151.16;1679039;85;21048;-72
2022/12/02 11:35:00;;;;;;;29.85;16.17;;;;;;;6.53;76.41;98153.03;1667234;85;21052;-71
2022/12/02 11:37:36;;;;;;;28.67;17.10;;;;;;;6.40;76.64;98149.20;1666845;85;21040;-71
2022/12/02 11:40:14;;;;;;;29.37;16.60;;;;;;;6.39;76.91;98148.77;1667257;85;21462;-72
2022/12/02 11:42:44;;;;;;;33.25;18.17;;;;;;;6.38;77.09;98149.67;1667144;85;21068;-72
2022/12/02 11:45:18;;;;;;;30.52;17.00;;;;;;;6.38;76.88;98151.42;1668540;85;21718;-71
2022/12/02 11:47:56;;;;;;;33.60;18.35;;;;;;;6.40;77.07;98150.52;1667352;85;22134;-72